Terminal Aerodrome Forecast
Issued by NWS Denver/Boulder, CO

Home | Current Version | Previous Version | Text Only | Print | Product List | Glossary On
Versions: 1 2 3 4 5 6 7 8 9 10 11 12 13 14 15 16 17 18 19 20 21 22 23 24 25 26 27 28 29 30 31 32 33 34 35 36 37 38 39 40 41 42 43 44 45 46 47 48 49 50
000
FTUS45 KBOU 200025 AAB
TAFDEN
TAF AMD
KDEN 200025Z 2000/2106 25011KT P6SM -TSRA BKN100CB
      TEMPO 2000/2001 VRB20G35KT
     FM200100 23011KT P6SM FEW100 SCT140
     FM200300 20011KT P6SM FEW110 SCT220
     FM201300 24007KT P6SM FEW140 SCT220
     FM201500 VRB06KT P6SM FEW140 SCT220
     FM201700 04008KT P6SM FEW110 SCT200
     FM202300 09010KT P6SM SCT100 BKN220
     FM210200 21012KT P6SM FEW100 BKN200=

USA.gov is the U.S. government's official web portal to all federal, state and local government web resources and services.